»·PEaware :: QXE2135 KEAT-KSEA

QXE2135 :: KEAT-KSEA

FLIGHT INFORMATION

Flight Status: Arrived
Operator:
Horizon Air
More flights by this operator :: More flights under this callsign
Pilot: Adlai G. (28854)
Aircraft: DEHAVILLAND DASH 8 400
(DH8D)
More flights by this aircraft type
Origin: KEAT Pangborn Meml
United States
Destination: KSEA Seattle-Tacoma Intl
United States
More flights between these airports :: More routes between these airports
Route: ZARLO2 GLASR GLASR1
File this flight plan on PilotEdge
Remarks:
Altitude:
(Current/Filed)
16,000ft
Speed:
(Current/Filed)
363kts
Departed: 10-May-20 10:46 AM
Arrived: 10-May-20 11:15 AM
Distance/Time
Traveled:
85nm/0:29
Distance/Time
To Go:
Arrived

Flight Plot

Page will automatically refresh every two minutes.

Flight plan parsing failed; only flown route is shown


Map Options




Map Legend


Flown Route
Filed Route
Departure Airport
Arrival Airport
Navaid (VOR, NDB)
Fix

Horizontal Profiles

Position Reports

Time Latitude Longitude Heading Altitude Ground
Speed
10-May-20 10:28 47.402639 -120.207767 134 1256ft 0kts
10-May-20 10:29 47.402639 -120.207767 134 1256ft 0kts
10-May-20 10:30 47.402639 -120.207767 134 1256ft 0kts
10-May-20 10:31 47.402639 -120.207767 134 1256ft 0kts
10-May-20 10:31 47.402639 -120.207767 134 1256ft 0kts
10-May-20 10:33 47.402639 -120.207767 134 1256ft 0kts
10-May-20 10:34 47.402639 -120.207767 134 1256ft 0kts
10-May-20 10:34 47.402639 -120.207767 134 1256ft 0kts
10-May-20 10:36 47.402639 -120.207767 134 1256ft 0kts
10-May-20 10:36 47.402639 -120.207767 134 1256ft 0kts
10-May-20 10:37 47.402639 -120.207767 134 1256ft 0kts
10-May-20 10:38 47.402639 -120.207767 134 1256ft 0kts
10-May-20 10:39 47.402639 -120.207767 134 1256ft 0kts
10-May-20 10:40 47.402642 -120.207771 134 1256ft 0kts
10-May-20 10:41 47.402591 -120.207764 181 1256ft 2kts
10-May-20 10:42 47.399562 -120.205090 136 1256ft 25kts
10-May-20 10:43 47.394964 -120.198768 138 1256ft 13kts
10-May-20 10:44 47.393943 -120.199537 238 1256ft 8kts
10-May-20 10:45 47.407824 -120.220340 314 1813ft 152kts
10-May-20 10:46 47.445337 -120.271712 318 4645ft 202kts
10-May-20 10:47 47.484721 -120.335400 315 7484ft 229kts
10-May-20 10:48 47.534435 -120.407829 316 9139ft 263kts
10-May-20 10:49 47.587241 -120.485686 315 10757ft 274kts
10-May-20 10:50 47.636528 -120.572705 298 12155ft 281kts
10-May-20 10:51 47.672779 -120.676690 297 13393ft 287kts
10-May-20 10:52 47.710224 -120.782161 296 14493ft 291kts
10-May-20 10:53 47.748053 -120.889536 295 15491ft 295kts
10-May-20 10:54 47.786932 -120.999924 295 15993ft 313kts
10-May-20 10:55 47.828391 -121.118884 295 15998ft 332kts
10-May-20 10:56 47.858983 -121.248684 273 15977ft 338kts
10-May-20 10:57 47.866902 -121.389089 272 15976ft 342kts
10-May-20 10:58 47.875790 -121.530264 273 15951ft 343kts
10-May-20 10:59 47.882677 -121.672353 261 15136ft 342kts
10-May-20 11:00 47.830403 -121.780596 221 13491ft 323kts
10-May-20 11:01 47.763502 -121.870220 220 11488ft 324kts
10-May-20 11:02 47.699741 -121.956190 220 9484ft 281kts
10-May-20 11:03 47.642881 -122.032746 220 7535ft 272kts
10-May-20 11:04 47.586445 -122.107591 221 6990ft 271kts
10-May-20 11:05 47.516398 -122.126122 179 6997ft 259kts
10-May-20 11:06 47.445143 -122.126217 179 6627ft 259kts
10-May-20 11:07 47.370279 -122.123678 178 5163ft 271kts
10-May-20 11:08 47.297640 -122.127952 203 3983ft 260kts
10-May-20 11:09 47.270863 -122.217367 283 3109ft 245kts
10-May-20 11:10 47.309931 -122.289203 330 2548ft 218kts
10-May-20 11:11 47.358027 -122.309070 2 1744ft 152kts
10-May-20 11:12 47.393611 -122.308402 2 1096ft 121kts
10-May-20 11:13 47.426955 -122.308101 2 532ft 116kts
10-May-20 11:14 47.443596 -122.306894 92 440ft 9kts
10-May-20 11:15 47.444514 -122.306317 359 440ft 16kts
10-May-20 11:16 47.447551 -122.304760 91 440ft 14kts
10-May-20 11:17 47.447122 -122.302778 127 440ft 0kts
10-May-20 11:18 47.447099 -122.302732 127 440ft 0kts
10-May-20 11:19 47.447271 -122.301639 0 440ft 4kts
10-May-20 11:20 47.447416 -122.301636 0 440ft 0kts
10-May-20 11:21 47.447416 -122.301636 0 440ft 0kts
10-May-20 11:22 47.447416 -122.301636 0 440ft 0kts
10-May-20 11:23 47.447416 -122.301636 0 440ft 0kts
10-May-20 11:24 47.447416 -122.301636 0 440ft 0kts
10-May-20 11:25 47.447416 -122.301636 0 440ft 0kts
10-May-20 11:26 47.447416 -122.301636 0 440ft 0kts

Navigation Log

Ident Type
Flight plan parsing failed, navigation log unavailable